createdAt,value
2022-08-29T00:01:40.697Z,16.82
2022-08-29T00:06:42.080Z,16.78
2022-08-29T00:11:46.392Z,16.76
2022-08-29T00:16:48.203Z,16.64
2022-08-29T00:21:50.659Z,16.59
2022-08-29T00:26:52.062Z,16.36
2022-08-29T00:31:53.559Z,16.26
2022-08-29T00:36:55.074Z,16.08
2022-08-29T00:41:56.619Z,15.93
2022-08-29T00:47:05.461Z,15.82
2022-08-29T00:52:13.938Z,15.79
2022-08-29T00:57:17.081Z,15.75
2022-08-29T01:02:19.319Z,15.74
2022-08-29T01:07:20.950Z,15.67
2022-08-29T01:12:22.535Z,15.63
2022-08-29T01:17:34.951Z,15.53
2022-08-29T01:22:59.827Z,15.41
2022-08-29T01:28:24.742Z,15.40
2022-08-29T01:33:31.091Z,15.19
2022-08-29T01:38:32.551Z,15.14
2022-08-29T01:43:43.354Z,15.05
2022-08-29T01:48:45.555Z,14.93
2022-08-29T01:53:47.232Z,14.89
2022-08-29T01:58:51.135Z,14.90
2022-08-29T02:03:52.645Z,14.87
2022-08-29T02:08:54.419Z,14.72
2022-08-29T02:13:58.101Z,14.62
2022-08-29T02:18:59.637Z,14.46
2022-08-29T02:24:21.370Z,14.41
2022-08-29T02:29:25.594Z,14.28
2022-08-29T02:34:27.029Z,14.28
2022-08-29T02:39:28.533Z,14.22
2022-08-29T02:44:31.405Z,14.23
2022-08-29T02:49:32.778Z,14.09
2022-08-29T02:54:35.976Z,14.00
2022-08-29T02:59:37.390Z,13.91
2022-08-29T03:04:39.000Z,13.93
2022-08-29T03:09:40.431Z,13.86
2022-08-29T03:14:41.977Z,13.80
2022-08-29T03:19:43.382Z,13.73
2022-08-29T03:24:44.953Z,13.72
2022-08-29T03:29:46.663Z,13.72
2022-08-29T03:34:48.360Z,13.71
2022-08-29T03:39:49.892Z,13.68
2022-08-29T03:44:51.321Z,13.69
2022-08-29T03:49:52.747Z,13.62
2022-08-29T03:54:54.223Z,13.57
2022-08-29T03:59:55.620Z,13.40
2022-08-29T04:04:57.149Z,13.44
2022-08-29T04:09:58.623Z,13.52
2022-08-29T04:15:00.025Z,13.37
2022-08-29T04:20:02.081Z,13.32
2022-08-29T04:25:05.983Z,13.33
2022-08-29T04:30:16.262Z,13.27
2022-08-29T04:35:17.970Z,13.35
2022-08-29T04:40:21.774Z,13.13
2022-08-29T04:45:23.741Z,13.14
2022-08-29T04:50:25.527Z,13.15
2022-08-29T04:55:26.985Z,13.25
2022-08-29T05:00:28.859Z,13.10
2022-08-29T05:05:31.945Z,13.23
2022-08-29T05:10:33.353Z,13.29
2022-08-29T05:15:34.781Z,13.23
2022-08-29T05:20:40.379Z,13.40
2022-08-29T05:25:42.748Z,13.36
2022-08-29T05:30:44.157Z,13.55
2022-08-29T05:35:45.716Z,13.65
2022-08-29T05:40:47.208Z,13.78
2022-08-29T05:45:48.625Z,13.91
2022-08-29T05:50:51.037Z,14.00
2022-08-29T05:55:53.392Z,14.19
2022-08-29T06:00:54.824Z,14.40
2022-08-29T06:05:56.380Z,14.58
2022-08-29T06:10:57.822Z,14.85
2022-08-29T06:15:59.679Z,15.19
2022-08-29T06:21:04.746Z,15.57
2022-08-29T06:26:08.062Z,15.87
2022-08-29T06:31:12.661Z,16.22
2022-08-29T06:36:15.050Z,16.34
2022-08-29T06:41:17.806Z,16.46
2022-08-29T06:46:26.821Z,16.51
2022-08-29T06:51:29.507Z,16.40
2022-08-29T06:56:31.280Z,16.49
2022-08-29T07:01:33.693Z,16.57
2022-08-29T07:06:37.593Z,16.63
2022-08-29T07:11:41.875Z,16.75
2022-08-29T07:16:43.460Z,17.27
2022-08-29T07:21:44.929Z,17.84
2022-08-29T07:26:46.401Z,18.33
2022-08-29T07:31:48.432Z,18.53
2022-08-29T07:36:49.855Z,19.15
2022-08-29T07:41:51.928Z,19.77
2022-08-29T07:46:57.507Z,20.28
2022-08-29T07:52:02.322Z,20.87
2022-08-29T08:02:25.640Z,22.39
2022-08-29T08:07:29.583Z,22.64
2022-08-29T08:12:31.175Z,22.73
2022-08-29T08:17:33.215Z,23.20
2022-08-29T08:22:35.572Z,23.70
2022-08-29T08:27:41.250Z,23.90
2022-08-29T08:32:47.380Z,24.41
2022-08-29T08:37:50.222Z,24.63
2022-08-29T08:42:52.990Z,24.67
2022-08-29T08:48:01.951Z,25.23
2022-08-29T08:53:17.297Z,25.76
2022-08-29T08:58:26.069Z,26.07
2022-08-29T09:04:11.019Z,26.59
2022-08-29T09:09:28.118Z,27.20
2022-08-29T09:14:51.105Z,27.58
2022-08-29T09:19:54.937Z,27.95
2022-08-29T09:25:01.581Z,27.72
2022-08-29T09:30:14.976Z,27.89
2022-08-29T09:35:36.776Z,28.15
2022-08-29T09:40:50.358Z,28.78
2022-08-29T09:46:10.760Z,28.99
2022-08-29T09:51:32.960Z,28.70
2022-08-29T09:56:37.167Z,29.12
2022-08-29T10:01:38.711Z,29.89
2022-08-29T10:06:45.119Z,29.35
2022-08-29T10:12:07.920Z,30.70
2022-08-29T10:17:47.157Z,31.21
2022-08-29T10:22:55.499Z,31.02
2022-08-29T10:28:12.727Z,32.64
2022-08-29T10:45:44.968Z,33.29
2022-08-29T10:51:22.564Z,34.63
2022-08-29T10:56:40.389Z,35.54
2022-08-29T11:02:16.906Z,35.68
2022-08-29T11:08:00.722Z,34.79
2022-08-29T11:14:05.370Z,34.78
2022-08-29T11:19:20.157Z,36.60
2022-08-29T11:24:31.712Z,37.75
2022-08-29T11:29:47.675Z,35.77
2022-08-29T11:35:29.999Z,35.91
2022-08-29T11:46:37.583Z,34.33
2022-08-29T11:51:41.164Z,35.52
2022-08-29T11:56:42.918Z,37.14
2022-08-29T12:01:55.913Z,37.56
2022-08-29T12:07:01.470Z,38.83
2022-08-29T12:12:04.409Z,39.43
2022-08-29T12:17:16.611Z,39.70
2022-08-29T12:23:02.773Z,39.98
2022-08-29T12:40:01.642Z,41.04
2022-08-29T12:51:00.951Z,41.86
2022-08-29T13:02:18.592Z,41.04
2022-08-29T13:13:21.839Z,40.65
2022-08-29T13:18:23.910Z,41.15
2022-08-29T13:24:08.887Z,40.85
2022-08-29T13:29:27.428Z,39.86
2022-08-29T13:34:44.781Z,38.14
2022-08-29T13:39:56.200Z,36.45
2022-08-29T13:45:22.265Z,34.52
2022-08-29T13:50:27.525Z,33.79
2022-08-29T13:55:29.257Z,33.03
2022-08-29T14:00:35.106Z,32.60
2022-08-29T14:05:37.837Z,32.95
2022-08-29T14:10:39.700Z,31.85
2022-08-29T14:15:41.862Z,31.06
2022-08-29T14:20:48.839Z,30.95
2022-08-29T14:25:52.134Z,31.34
2022-08-29T14:30:59.645Z,31.27
2022-08-29T14:36:07.590Z,30.49
2022-08-29T14:41:09.179Z,30.33
2022-08-29T14:47:29.444Z,30.25
2022-08-29T14:51:49.137Z,30.34
2022-08-29T14:57:06.570Z,30.23
2022-08-29T15:02:09.015Z,29.83
2022-08-29T15:07:14.209Z,29.69
2022-08-29T15:12:22.168Z,29.79
2022-08-29T15:18:47.958Z,29.24
2022-08-29T15:23:41.448Z,29.18
2022-08-29T15:28:42.920Z,29.05
2022-08-29T15:33:44.493Z,28.70
2022-08-29T15:38:57.825Z,28.62
2022-08-29T15:44:06.761Z,28.60
2022-08-29T15:49:28.839Z,28.50
2022-08-29T15:54:37.669Z,28.34
2022-08-29T16:11:15.249Z,28.11
2022-08-29T16:16:17.182Z,28.13
2022-08-29T16:21:27.773Z,28.50
2022-08-29T16:26:30.653Z,28.27
2022-08-29T16:31:32.610Z,28.16
2022-08-29T16:36:34.124Z,27.84
2022-08-29T16:41:35.581Z,27.59
2022-08-29T16:46:37.106Z,27.40
2022-08-29T16:51:39.329Z,27.18
2022-08-29T16:56:40.871Z,27.18
2022-08-29T17:01:45.839Z,26.85
2022-08-29T17:06:47.969Z,26.42
2022-08-29T17:11:50.690Z,26.08
2022-08-29T17:16:55.724Z,26.18
2022-08-29T17:21:57.244Z,25.89
2022-08-29T17:27:01.593Z,25.70
2022-08-29T17:32:04.508Z,25.66
2022-08-29T17:37:06.778Z,25.53
2022-08-29T17:42:08.255Z,25.38
2022-08-29T17:47:09.670Z,25.16
2022-08-29T17:52:11.553Z,24.80
2022-08-29T17:57:13.295Z,24.71
2022-08-29T18:02:14.798Z,24.52
2022-08-29T18:07:16.210Z,24.27
2022-08-29T18:12:17.907Z,24.22
2022-08-29T18:17:19.429Z,24.03
2022-08-29T18:22:20.928Z,23.88
2022-08-29T18:27:22.558Z,23.84
2022-08-29T18:32:24.092Z,23.67
2022-08-29T18:37:25.579Z,23.48
2022-08-29T18:42:39.945Z,23.44
2022-08-29T18:47:42.626Z,23.23
2022-08-29T18:52:44.481Z,23.18
2022-08-29T18:57:46.087Z,23.09
2022-08-29T19:02:47.669Z,23.01
2022-08-29T19:07:49.336Z,22.88
2022-08-29T19:12:50.916Z,22.79
2022-08-29T19:17:53.144Z,22.74
2022-08-29T19:22:54.910Z,22.64
2022-08-29T19:27:56.965Z,22.60
2022-08-29T19:33:01.758Z,22.53
2022-08-29T19:38:04.319Z,22.45
2022-08-29T19:43:13.427Z,22.40
2022-08-29T19:48:16.159Z,22.25
2022-08-29T19:53:24.661Z,22.22
2022-08-29T20:03:46.819Z,22.03
2022-08-29T20:08:48.693Z,21.89
2022-08-29T20:13:52.758Z,21.87
2022-08-29T20:18:55.816Z,21.70
2022-08-29T20:23:58.428Z,21.68
2022-08-29T20:29:02.451Z,21.58
2022-08-29T20:34:04.504Z,21.52
2022-08-29T20:39:08.625Z,21.51
2022-08-29T20:44:10.187Z,21.49
2022-08-29T20:49:14.298Z,21.36
2022-08-29T20:54:18.904Z,21.29
2022-08-29T20:59:24.644Z,21.30
2022-08-29T21:04:27.717Z,21.23
2022-08-29T21:09:29.594Z,21.10
2022-08-29T21:14:31.053Z,20.94
2022-08-29T21:19:32.928Z,20.83
2022-08-29T21:24:37.535Z,20.80
2022-08-29T21:29:39.183Z,20.70
2022-08-29T21:34:41.146Z,20.65
2022-08-29T21:39:42.667Z,20.70
2022-08-29T21:44:44.218Z,20.67
2022-08-29T21:49:45.871Z,20.67
2022-08-29T21:54:47.422Z,20.68
2022-08-29T21:59:48.946Z,20.71
2022-08-29T22:04:50.350Z,20.68
2022-08-29T22:09:51.945Z,20.52
2022-08-29T22:14:53.518Z,20.52
2022-08-29T22:19:54.976Z,20.54
2022-08-29T22:24:56.472Z,20.50
2022-08-29T22:29:58.011Z,20.46
2022-08-29T22:34:59.482Z,20.44
2022-08-29T22:40:01.062Z,20.39
2022-08-29T22:45:04.212Z,20.34
2022-08-29T22:50:09.326Z,20.27
2022-08-29T22:55:14.123Z,20.21
2022-08-29T23:00:21.485Z,20.25
2022-08-29T23:05:23.047Z,20.19
2022-08-29T23:10:24.647Z,20.16
2022-08-29T23:15:26.351Z,20.19
2022-08-29T23:20:29.256Z,20.18
2022-08-29T23:25:31.126Z,20.20
2022-08-29T23:30:32.737Z,20.16
2022-08-29T23:35:34.141Z,20.12
2022-08-29T23:40:36.843Z,20.04
2022-08-29T23:45:38.876Z,19.94
2022-08-29T23:50:40.767Z,19.81
2022-08-29T23:55:46.702Z,19.69
